Time;durP1;ratioP1;P1;durP2;ratioP2;P2;SDS_P1;SDS_P2;PMS_P1;PMS_P2;Temp;Humidity;BMP_temperature;BMP_pressure;BME280_temperature;BME280_humidity;BME280_pressure;Samples;Min_cycle;Max_cycle;Signal;HPM_P1;HPM_P2
2023/11/21 00:00:55;;;;;;;10.32;2.65;;;7.10;99.90;;;;;;5050887;28;20031;-66
2023/11/21 00:03:23;;;;;;;11.68;2.45;;;7.10;99.90;;;;;;5050358;28;20676;-67
2023/11/21 00:05:48;;;;;;;6.75;2.08;;;7.10;99.90;;;;;;5050993;28;20025;-66
2023/11/21 00:08:14;;;;;;;13.10;2.60;;;7.10;99.90;;;;;;5050744;28;20378;-66
2023/11/21 00:10:40;;;;;;;10.55;2.42;;;7.10;99.90;;;;;;5050137;28;20037;-66
2023/11/21 00:13:05;;;;;;;7.88;1.83;;;7.20;99.90;;;;;;5049869;28;20055;-66
2023/11/21 00:15:31;;;;;;;10.82;2.00;;;7.10;99.90;;;;;;5050313;28;20082;-66
2023/11/21 00:17:56;;;;;;;7.00;1.70;;;7.20;99.90;;;;;;5050030;28;20500;-67
2023/11/21 00:20:22;;;;;;;7.40;1.88;;;7.10;99.90;;;;;;5051038;28;20036;-64
2023/11/21 00:22:47;;;;;;;9.88;2.13;;;7.20;99.90;;;;;;5049887;28;20397;-64
2023/11/21 00:25:15;;;;;;;10.70;1.80;;;7.10;99.90;;;;;;5055532;28;20121;-64
2023/11/21 00:27:41;;;;;;;14.10;2.30;;;7.10;99.90;;;;;;5056154;28;20037;-65
2023/11/21 00:30:08;;;;;;;8.82;1.92;;;7.10;99.90;;;;;;5056181;28;20544;-67
2023/11/21 00:32:36;;;;;;;7.80;1.60;;;7.20;99.90;;;;;;5056656;28;20033;-67
2023/11/21 00:35:02;;;;;;;8.73;1.80;;;7.20;99.90;;;;;;5056404;28;20025;-66
2023/11/21 00:37:27;;;;;;;4.38;1.45;;;7.20;99.90;;;;;;5056097;28;20476;-66
2023/11/21 00:39:53;;;;;;;10.40;1.85;;;7.30;99.90;;;;;;5056902;28;20028;-64
2023/11/21 00:42:18;;;;;;;9.27;1.75;;;7.30;99.90;;;;;;5055325;28;20029;-64
2023/11/21 00:44:44;;;;;;;4.75;1.73;;;7.30;99.90;;;;;;5056591;28;20363;-66
2023/11/21 00:47:09;;;;;;;7.35;1.48;;;7.30;99.90;;;;;;5055624;28;20024;-66
2023/11/21 00:49:35;;;;;;;9.38;2.00;;;7.30;99.90;;;;;;5056501;28;20032;-66
2023/11/21 00:52:01;;;;;;;7.82;2.05;;;7.30;99.90;;;;;;5055922;28;20028;-66
2023/11/21 00:54:27;;;;;;;10.40;2.50;;;7.40;99.90;;;;;;5056340;28;20025;-67
2023/11/21 00:56:53;;;;;;;10.15;2.22;;;7.40;99.90;;;;;;5054647;28;20047;-66
2023/11/21 00:59:19;;;;;;;7.35;1.80;;;7.40;99.90;;;;;;5056118;28;20021;-66
2023/11/21 01:01:44;;;;;;;5.15;1.88;;;7.50;99.90;;;;;;5056292;28;20061;-66
2023/11/21 01:04:10;;;;;;;8.43;2.15;;;7.60;99.90;;;;;;5056502;28;20033;-66
2023/11/21 01:06:36;;;;;;;6.70;1.73;;;7.60;99.90;;;;;;5056603;28;20025;-64
2023/11/21 01:09:07;;;;;;;9.30;1.92;;;7.60;99.90;;;;;;5056916;28;20025;-64
2023/11/21 01:11:35;;;;;;;4.70;1.25;;;7.60;99.90;;;;;;5057098;28;20040;-65
2023/11/21 01:14:03;;;;;;;4.57;1.73;;;7.70;99.90;;;;;;5050827;28;20059;-65
2023/11/21 01:16:28;;;;;;;6.90;1.65;;;7.60;99.90;;;;;;5056338;28;20091;-65
2023/11/21 01:18:54;;;;;;;5.95;1.30;;;7.70;99.90;;;;;;5057289;28;20048;-64
2023/11/21 01:21:20;;;;;;;5.57;1.35;;;7.70;99.90;;;;;;5056073;28;20033;-65
2023/11/21 01:23:47;;;;;;;6.05;1.40;;;7.70;99.90;;;;;;5057312;28;20051;-65
2023/11/21 01:26:13;;;;;;;3.25;1.30;;;7.70;99.90;;;;;;5055606;28;20029;-64
2023/11/21 01:28:38;;;;;;;8.23;1.50;;;7.70;99.90;;;;;;5057054;28;20044;-65
2023/11/21 01:31:04;;;;;;;6.90;1.38;;;7.70;99.90;;;;;;5055837;28;20017;-64
2023/11/21 01:33:29;;;;;;;3.92;1.42;;;7.70;99.90;;;;;;5056799;28;20071;-64
2023/11/21 01:35:55;;;;;;;5.18;1.23;;;7.70;99.90;;;;;;5053786;28;20025;-65
2023/11/21 01:38:22;;;;;;;6.35;2.13;;;7.60;99.90;;;;;;5052821;28;20032;-64
2023/11/21 01:40:47;;;;;;;6.50;1.33;;;7.60;99.90;;;;;;5053029;28;20421;-64
2023/11/21 01:43:13;;;;;;;6.07;1.55;;;7.70;99.90;;;;;;5052809;28;20104;-64
2023/11/21 01:45:39;;;;;;;3.40;1.63;;;7.60;99.90;;;;;;5052856;28;20029;-65
2023/11/21 01:48:06;;;;;;;7.43;2.40;;;7.60;99.90;;;;;;5053247;28;20029;-64
2023/11/21 01:50:33;;;;;;;9.30;1.40;;;7.70;99.90;;;;;;5053043;28;20036;-64
2023/11/21 01:52:59;;;;;;;3.58;1.30;;;7.70;99.90;;;;;;5053557;28;20075;-64
2023/11/21 01:55:27;;;;;;;4.28;1.10;;;7.70;99.90;;;;;;5052003;28;20115;-64
2023/11/21 01:57:54;;;;;;;4.72;1.20;;;7.70;99.90;;;;;;5053295;28;20017;-64
2023/11/21 02:00:20;;;;;;;2.88;1.70;;;7.70;99.90;;;;;;5052381;28;20291;-64
2023/11/21 02:02:47;;;;;;;6.57;1.55;;;7.70;99.90;;;;;;5053317;28;20029;-65
2023/11/21 02:05:15;;;;;;;3.70;1.27;;;7.80;99.90;;;;;;5051959;28;20032;-64
2023/11/21 02:07:47;;;;;;;3.75;1.15;;;7.80;99.90;;;;;;5053073;28;20029;-65
2023/11/21 02:10:16;;;;;;;4.88;1.02;;;7.80;99.90;;;;;;5052225;28;20108;-65
2023/11/21 02:12:42;;;;;;;7.15;1.33;;;7.80;99.90;;;;;;5052809;28;20132;-65
2023/11/21 02:15:21;;;;;;;6.07;1.10;;;7.80;99.90;;;;;;5052229;28;20028;-65
2023/11/21 02:17:50;;;;;;;5.70;0.98;;;7.80;99.90;;;;;;5052415;28;20045;-64
2023/11/21 02:20:17;;;;;;;4.90;1.15;;;7.80;99.90;;;;;;5052190;28;20021;-64
2023/11/21 02:22:48;;;;;;;7.88;1.15;;;7.70;99.90;;;;;;5052844;28;20481;-65
2023/11/21 02:25:14;;;;;;;4.22;1.25;;;7.80;99.90;;;;;;5052148;28;20021;-64
2023/11/21 02:27:39;;;;;;;4.78;1.02;;;7.70;99.90;;;;;;5052726;28;20431;-64
2023/11/21 02:30:07;;;;;;;3.75;0.98;;;7.70;99.90;;;;;;5052159;28;20139;-64
2023/11/21 02:32:33;;;;;;;5.60;1.08;;;7.70;99.90;;;;;;5053187;28;20029;-64
2023/11/21 02:35:02;;;;;;;4.75;0.80;;;7.70;99.90;;;;;;5056665;28;20047;-64
2023/11/21 02:37:28;;;;;;;5.07;1.58;;;7.70;99.90;;;;;;5052053;28;20036;-64
2023/11/21 02:39:53;;;;;;;4.05;1.00;;;7.70;99.90;;;;;;5052540;28;20025;-64
2023/11/21 02:42:19;;;;;;;4.32;1.05;;;7.70;99.90;;;;;;5051258;28;20037;-65
2023/11/21 02:44:44;;;;;;;5.45;0.90;;;7.70;99.90;;;;;;5052367;28;20033;-64
2023/11/21 02:47:10;;;;;;;3.20;0.75;;;7.70;99.90;;;;;;5050399;28;20067;-64
2023/11/21 02:49:35;;;;;;;5.07;1.00;;;7.70;99.90;;;;;;5052103;28;20021;-65
2023/11/21 02:52:02;;;;;;;3.40;0.90;;;7.70;99.90;;;;;;5051475;28;20029;-65
2023/11/21 02:54:27;;;;;;;2.17;0.65;;;7.70;99.90;;;;;;5051980;28;20474;-65
2023/11/21 02:56:53;;;;;;;3.72;0.90;;;7.70;99.90;;;;;;5035475;28;20047;-65
2023/11/21 02:59:19;;;;;;;3.22;0.60;;;7.70;99.90;;;;;;5051643;28;20052;-65
2023/11/21 03:01:45;;;;;;;2.95;0.82;;;7.60;99.90;;;;;;5051799;28;20033;-65
2023/11/21 03:04:10;;;;;;;4.15;0.73;;;7.60;99.90;;;;;;5051304;28;20406;-64
2023/11/21 03:06:36;;;;;;;3.60;0.90;;;7.50;99.90;;;;;;5051255;28;20021;-65
2023/11/21 03:09:02;;;;;;;3.50;0.80;;;7.50;99.90;;;;;;5051883;28;20025;-64
2023/11/21 03:11:27;;;;;;;4.32;0.70;;;7.50;99.90;;;;;;5051551;28;20389;-64
2023/11/21 03:13:53;;;;;;;5.35;0.88;;;7.50;99.90;;;;;;5051494;28;20375;-64
2023/11/21 03:16:19;;;;;;;2.67;0.80;;;7.50;99.90;;;;;;5050653;28;20025;-64
2023/11/21 03:18:44;;;;;;;2.03;0.57;;;7.50;99.90;;;;;;5051945;28;20117;-65
2023/11/21 03:21:10;;;;;;;1.80;0.63;;;7.40;99.90;;;;;;5050819;28;20516;-65
2023/11/21 03:23:36;;;;;;;3.05;0.70;;;7.40;99.90;;;;;;5051221;28;20036;-65
2023/11/21 03:26:03;;;;;;;1.42;0.50;;;7.40;99.90;;;;;;5050875;28;20029;-65
2023/11/21 03:28:29;;;;;;;1.38;0.65;;;7.40;99.90;;;;;;5051379;28;20045;-65
2023/11/21 03:30:56;;;;;;;5.40;0.60;;;7.40;99.90;;;;;;5051163;28;20036;-65
2023/11/21 03:33:22;;;;;;;3.05;0.77;;;7.40;99.90;;;;;;5050365;28;20703;-64
2023/11/21 03:35:48;;;;;;;1.52;0.60;;;7.30;99.90;;;;;;5051103;28;20382;-64
2023/11/21 03:38:13;;;;;;;1.08;0.60;;;7.40;99.90;;;;;;5050627;28;20493;-65
2023/11/21 03:40:39;;;;;;;3.03;0.73;;;7.40;99.90;;;;;;5050402;28;20112;-65
2023/11/21 03:43:06;;;;;;;2.80;0.60;;;7.40;99.90;;;;;;5051065;28;20062;-65
2023/11/21 03:45:32;;;;;;;3.95;0.80;;;7.40;99.90;;;;;;5051229;28;20037;-65
2023/11/21 03:47:57;;;;;;;0.75;0.65;;;7.40;99.90;;;;;;5051366;28;20052;-64
2023/11/21 03:50:23;;;;;;;3.72;0.68;;;7.40;99.90;;;;;;5050095;28;20021;-65
2023/11/21 03:52:48;;;;;;;1.08;0.70;;;7.50;99.90;;;;;;5051258;28;20094;-65
2023/11/21 03:55:14;;;;;;;5.80;0.70;;;7.40;99.90;;;;;;5050215;28;20053;-64
2023/11/21 03:57:40;;;;;;;3.42;0.40;;;7.40;99.90;;;;;;5050699;28;20033;-64
2023/11/21 04:00:08;;;;;;;3.10;0.47;;;7.40;99.90;;;;;;5049863;28;20122;-65
2023/11/21 04:02:34;;;;;;;4.60;0.65;;;7.30;99.90;;;;;;5051198;28;20107;-65
2023/11/21 04:05:00;;;;;;;1.65;0.70;;;7.40;99.90;;;;;;5050948;28;20029;-64
2023/11/21 04:07:25;;;;;;;4.18;0.50;;;7.40;99.90;;;;;;5050381;28;20102;-64
2023/11/21 04:09:51;;;;;;;2.88;0.60;;;7.40;99.90;;;;;;5050711;28;20041;-64
2023/11/21 04:12:17;;;;;;;1.85;0.68;;;7.40;99.90;;;;;;5049321;28;20021;-65
2023/11/21 04:14:42;;;;;;;0.65;0.50;;;7.50;99.90;;;;;;5050922;28;20036;-65
2023/11/21 04:17:09;;;;;;;1.83;0.68;;;7.40;99.90;;;;;;5049811;28;20091;-64
2023/11/21 04:19:34;;;;;;;4.18;0.52;;;7.40;99.90;;;;;;5051149;28;20478;-64
2023/11/21 04:22:00;;;;;;;1.02;0.50;;;7.30;99.90;;;;;;5049996;28;20052;-65
2023/11/21 04:24:26;;;;;;;4.18;0.43;;;7.30;99.90;;;;;;5049831;28;20037;-65
2023/11/21 04:26:51;;;;;;;2.63;0.65;;;7.20;99.90;;;;;;5050191;28;20518;-65
2023/11/21 04:29:17;;;;;;;4.57;0.60;;;7.20;99.90;;;;;;5049926;28;20454;-65
2023/11/21 04:31:42;;;;;;;3.40;0.80;;;7.20;99.90;;;;;;5049372;28;20371;-65
2023/11/21 04:34:08;;;;;;;6.30;0.73;;;7.20;99.90;;;;;;5049977;28;20017;-64
2023/11/21 04:36:34;;;;;;;2.53;0.65;;;7.20;99.90;;;;;;5050305;28;20035;-64
2023/11/21 04:39:00;;;;;;;4.18;1.50;;;7.20;99.90;;;;;;5050092;28;20055;-64
2023/11/21 04:41:26;;;;;;;4.20;1.30;;;7.10;99.90;;;;;;5049801;28;20045;-64
2023/11/21 04:43:51;;;;;;;2.53;1.20;;;7.10;99.90;;;;;;5050275;28;20086;-65
2023/11/21 04:46:17;;;;;;;5.70;1.35;;;7.10;99.90;;;;;;5049288;28;20104;-65
2023/11/21 04:48:43;;;;;;;2.75;1.33;;;7.00;99.90;;;;;;5050224;28;20040;-67
2023/11/21 04:51:08;;;;;;;1.15;0.60;;;6.90;99.90;;;;;;5049200;28;20071;-65
2023/11/21 04:53:34;;;;;;;2.50;0.70;;;6.90;99.90;;;;;;5050490;28;20390;-65
2023/11/21 04:56:00;;;;;;;3.03;0.85;;;6.90;99.90;;;;;;5049684;28;20025;-64
2023/11/21 04:58:26;;;;;;;0.68;0.57;;;6.80;99.90;;;;;;5050167;28;20029;-65
2023/11/21 05:00:51;;;;;;;1.35;0.90;;;6.70;99.90;;;;;;5049422;28;20029;-65
2023/11/21 05:03:19;;;;;;;2.00;0.80;;;;;;;;;;5049403;28;20525;-65
2023/11/21 05:05:48;;;;;;;2.80;1.05;;;;;;;;;;5049949;28;20096;-65
2023/11/21 05:08:18;;;;;;;1.42;0.60;;;;;;;;;;5049262;28;20020;-65
2023/11/21 05:10:48;;;;;;;;;;;;;;;;;;5050803;28;20482;-65
2023/11/21 05:13:17;;;;;;;1.30;0.40;;;;;;;;;;5053286;28;19915;-65
2023/11/21 05:15:43;;;;;;;0.90;0.70;;;6.60;99.90;;;;;;5053564;28;20381;-65
2023/11/21 05:18:10;;;;;;;1.77;0.90;;;6.60;99.90;;;;;;5052894;28;20052;-65
2023/11/21 05:20:36;;;;;;;2.22;0.57;;;6.60;99.90;;;;;;5053365;28;20025;-65
2023/11/21 05:23:01;;;;;;;1.25;0.68;;;6.60;99.90;;;;;;5053280;28;20041;-65
2023/11/21 05:25:27;;;;;;;2.08;0.80;;;6.60;99.90;;;;;;5053076;28;20037;-65
2023/11/21 05:27:54;;;;;;;1.15;0.70;;;6.70;99.90;;;;;;5053873;28;20028;-65
2023/11/21 05:30:21;;;;;;;1.52;1.10;;;6.70;99.90;;;;;;5052422;28;20462;-65
2023/11/21 05:32:46;;;;;;;1.70;0.77;;;6.70;99.90;;;;;;5035203;28;20041;-65
2023/11/21 05:35:15;;;;;;;1.58;1.00;;;6.70;99.90;;;;;;5052189;28;20476;-65
2023/11/21 05:37:41;;;;;;;1.50;0.63;;;6.70;99.90;;;;;;5053669;28;20029;-65
2023/11/21 05:40:08;;;;;;;2.78;0.85;;;6.80;99.90;;;;;;5051765;28;20107;-64
2023/11/21 05:42:35;;;;;;;2.70;0.80;;;6.80;99.90;;;;;;5053496;28;20025;-65
2023/11/21 05:45:10;;;;;;;2.15;0.70;;;6.90;99.90;;;;;;5053565;28;20021;-64
2023/11/21 05:47:46;;;;;;;6.78;1.92;;;6.90;99.90;;;;;;5053635;28;20331;-64
2023/11/21 05:50:17;;;;;;;7.85;1.60;;;7.00;99.90;;;;;;5052363;28;20028;-64
2023/11/21 05:52:44;;;;;;;5.70;1.60;;;7.00;99.90;;;;;;5053210;28;20120;-64
2023/11/21 05:55:10;;;;;;;3.95;1.20;;;7.00;99.90;;;;;;5051833;28;20067;-65
2023/11/21 05:57:37;;;;;;;2.72;0.70;;;7.00;99.90;;;;;;5053147;28;20453;-65
2023/11/21 06:00:14;;;;;;;1.27;0.65;;;7.00;99.90;;;;;;5051992;28;20037;-64
2023/11/21 06:02:40;;;;;;;1.75;0.73;;;7.00;99.90;;;;;;5052894;28;20061;-65
2023/11/21 06:05:07;;;;;;;4.13;0.82;;;7.00;99.90;;;;;;5051835;28;20092;-65
2023/11/21 06:07:33;;;;;;;4.75;0.80;;;7.00;99.90;;;;;;5052977;28;20069;-65
2023/11/21 06:09:59;;;;;;;2.42;1.02;;;7.00;99.90;;;;;;5053055;28;20017;-65
2023/11/21 06:12:25;;;;;;;1.05;0.95;;;6.90;99.90;;;;;;5051123;28;20336;-65
2023/11/21 06:14:51;;;;;;;1.60;0.90;;;6.90;99.90;;;;;;5052634;28;20057;-65
2023/11/21 06:17:17;;;;;;;0.75;0.73;;;6.90;99.90;;;;;;5051281;28;20033;-65
2023/11/21 06:19:45;;;;;;;1.58;1.02;;;7.00;99.90;;;;;;5052526;28;20036;-64
2023/11/21 06:22:11;;;;;;;4.95;1.45;;;7.00;99.90;;;;;;5047642;28;20121;-65
2023/11/21 06:24:37;;;;;;;3.72;1.50;;;7.00;99.90;;;;;;5051671;28;20048;-65
2023/11/21 06:27:04;;;;;;;3.00;1.88;;;7.00;99.90;;;;;;5060833;28;20041;-65
2023/11/21 06:29:31;;;;;;;1.95;1.10;;;7.00;99.90;;;;;;5057947;28;20033;-65
2023/11/21 06:31:58;;;;;;;2.45;1.10;;;7.10;99.90;;;;;;5050871;28;20045;-65
2023/11/21 06:34:24;;;;;;;3.60;1.02;;;7.00;99.90;;;;;;5049378;28;20028;-65
2023/11/21 06:36:49;;;;;;;0.80;0.73;;;7.10;99.90;;;;;;5050870;28;20026;-66
2023/11/21 06:39:16;;;;;;;2.30;0.85;;;7.10;99.90;;;;;;5052013;28;20025;-69
2023/11/21 06:41:42;;;;;;;4.15;1.30;;;7.10;99.90;;;;;;5050945;28;20389;-65
2023/11/21 06:44:08;;;;;;;4.18;0.90;;;7.10;99.90;;;;;;5051707;28;20064;-68
2023/11/21 06:46:34;;;;;;;2.45;0.98;;;7.10;99.90;;;;;;5051301;28;20075;-65
2023/11/21 06:49:00;;;;;;;3.75;1.15;;;7.10;99.90;;;;;;5051960;28;20434;-65
2023/11/21 06:51:25;;;;;;;2.85;0.80;;;7.20;99.90;;;;;;5050759;28;20099;-65
2023/11/21 06:53:51;;;;;;;3.53;1.20;;;7.20;99.90;;;;;;5052022;28;20029;-65
2023/11/21 06:56:20;;;;;;;2.53;1.20;;;7.20;99.90;;;;;;5050858;28;20103;-65
2023/11/21 06:58:46;;;;;;;1.75;0.80;;;7.30;99.90;;;;;;5051856;28;20036;-64
2023/11/21 07:01:13;;;;;;;1.23;1.13;;;7.30;99.90;;;;;;5050195;28;20032;-67
2023/11/21 07:03:39;;;;;;;1.92;0.80;;;7.20;99.90;;;;;;5052206;28;20056;-65
2023/11/21 07:06:05;;;;;;;2.10;1.10;;;7.30;99.90;;;;;;5049635;28;20059;-65
2023/11/21 07:08:31;;;;;;;1.23;0.90;;;7.30;99.90;;;;;;5051573;28;20021;-65
2023/11/21 07:10:56;;;;;;;2.47;1.05;;;7.30;99.90;;;;;;5050615;28;20025;-65
2023/11/21 07:13:22;;;;;;;2.25;1.00;;;7.40;99.90;;;;;;5050906;28;20303;-65
2023/11/21 07:15:48;;;;;;;2.20;1.00;;;7.40;99.90;;;;;;5050630;28;20102;-65
2023/11/21 07:18:14;;;;;;;2.92;0.90;;;7.40;99.90;;;;;;5050380;28;20049;-70
2023/11/21 07:20:39;;;;;;;2.13;0.70;;;7.40;99.90;;;;;;5050497;28;20025;-66
2023/11/21 07:23:05;;;;;;;1.85;1.02;;;7.40;99.90;;;;;;5050085;28;20128;-66
2023/11/21 07:25:32;;;;;;;0.85;0.57;;;7.40;99.90;;;;;;5052346;28;20056;-65
2023/11/21 07:27:57;;;;;;;1.17;0.73;;;7.40;99.90;;;;;;5050588;28;20103;-65
2023/11/21 07:30:23;;;;;;;1.35;0.77;;;7.50;99.90;;;;;;5050055;28;20247;-65
2023/11/21 07:32:49;;;;;;;2.25;0.80;;;7.50;99.90;;;;;;5050212;28;20029;-65
2023/11/21 07:35:14;;;;;;;2.75;0.73;;;7.50;99.90;;;;;;5049208;28;20421;-65
2023/11/21 07:37:40;;;;;;;1.45;0.90;;;7.50;99.90;;;;;;5051324;28;20108;-65
2023/11/21 07:40:08;;;;;;;2.65;0.93;;;7.60;99.90;;;;;;5063636;28;20028;-65
2023/11/21 07:42:34;;;;;;;1.80;0.88;;;7.60;99.90;;;;;;5052866;28;20133;-65
2023/11/21 07:44:59;;;;;;;1.65;0.80;;;7.60;99.90;;;;;;5050230;28;20428;-65
2023/11/21 07:47:27;;;;;;;2.30;1.13;;;7.60;99.90;;;;;;5049436;28;20040;-65
2023/11/21 07:49:53;;;;;;;4.32;1.13;;;7.70;99.90;;;;;;5047401;28;20391;-66
2023/11/21 07:52:21;;;;;;;1.65;0.90;;;7.80;99.90;;;;;;5050180;28;20033;-65
2023/11/21 07:54:46;;;;;;;1.35;1.08;;;7.80;99.90;;;;;;5052836;28;20024;-66
2023/11/21 07:57:13;;;;;;;1.42;1.00;;;7.90;99.90;;;;;;5051777;28;20028;-65
2023/11/21 07:59:40;;;;;;;3.30;0.88;;;7.90;99.90;;;;;;5050762;28;20032;-66
2023/11/21 08:02:07;;;;;;;1.23;1.00;;;7.90;99.90;;;;;;5049518;28;20094;-66
2023/11/21 08:04:32;;;;;;;1.15;0.80;;;8.00;99.90;;;;;;5050126;28;20041;-67
2023/11/21 08:06:58;;;;;;;2.45;0.85;;;8.00;99.90;;;;;;5050535;28;20033;-66
2023/11/21 08:09:23;;;;;;;1.08;0.57;;;8.00;99.90;;;;;;5049192;28;20086;-66
2023/11/21 08:11:49;;;;;;;2.75;0.70;;;8.00;99.90;;;;;;5050250;28;20029;-66
2023/11/21 08:14:17;;;;;;;1.35;0.93;;;8.00;99.90;;;;;;5049281;28;20029;-66
2023/11/21 08:16:42;;;;;;;2.28;1.17;;;8.10;99.90;;;;;;5049719;28;20386;-66
2023/11/21 08:19:09;;;;;;;4.75;1.63;;;8.10;99.90;;;;;;5049572;28;20033;-65
2023/11/21 08:21:38;;;;;;;2.85;1.30;;;8.10;99.90;;;;;;5050154;28;20125;-66
2023/11/21 08:24:05;;;;;;;3.93;1.20;;;8.20;99.90;;;;;;5049710;28;20040;-66
2023/11/21 08:26:30;;;;;;;3.47;1.25;;;8.20;99.90;;;;;;5050011;28;20025;-66
2023/11/21 08:28:56;;;;;;;1.25;0.82;;;8.20;99.90;;;;;;5050145;28;20051;-66
2023/11/21 08:31:25;;;;;;;3.35;1.40;;;8.20;99.90;;;;;;5048352;28;20020;-65
2023/11/21 08:33:51;;;;;;;4.22;1.38;;;8.20;99.90;;;;;;5050149;28;20021;-66
2023/11/21 08:36:16;;;;;;;2.72;1.02;;;8.30;99.90;;;;;;5049400;28;20032;-66
2023/11/21 08:38:42;;;;;;;2.17;1.00;;;8.20;99.90;;;;;;5050418;28;20072;-66
2023/11/21 08:41:08;;;;;;;3.15;1.45;;;8.20;99.90;;;;;;5049131;28;20031;-66
2023/11/21 08:43:39;;;;;;;2.20;1.20;;;8.20;99.90;;;;;;5050057;28;20040;-66
2023/11/21 08:46:10;;;;;;;4.00;1.27;;;8.30;99.90;;;;;;5052768;28;20025;-67
2023/11/21 08:48:38;;;;;;;1.25;1.00;;;8.40;99.90;;;;;;5053803;28;20021;-66
2023/11/21 08:51:04;;;;;;;1.60;0.88;;;8.40;99.90;;;;;;5053455;28;20386;-66
2023/11/21 08:53:30;;;;;;;5.20;0.98;;;8.50;99.90;;;;;;5053813;28;20121;-66
2023/11/21 08:55:56;;;;;;;4.38;1.02;;;8.70;99.90;;;;;;5053775;28;20036;-65
2023/11/21 08:58:22;;;;;;;2.65;0.93;;;8.80;99.90;;;;;;5052581;28;20025;-65
2023/11/21 09:00:47;;;;;;;2.20;0.95;;;8.80;99.90;;;;;;5053523;28;20108;-66
2023/11/21 09:03:13;;;;;;;1.65;0.90;;;9.00;99.90;;;;;;5052900;28;20122;-65
2023/11/21 09:05:39;;;;;;;1.42;0.95;;;9.10;99.90;;;;;;5067782;28;20029;-69
2023/11/21 09:08:06;;;;;;;4.18;0.88;;;9.20;99.90;;;;;;5053236;28;20028;-66
2023/11/21 09:10:35;;;;;;;1.23;0.73;;;9.30;99.90;;;;;;5053224;28;20086;-65
2023/11/21 09:13:01;;;;;;;4.03;1.23;;;9.40;99.90;;;;;;5053494;28;20029;-66
2023/11/21 09:15:27;;;;;;;1.52;1.13;;;9.50;99.90;;;;;;5052186;28;20113;-66
2023/11/21 09:17:53;;;;;;;2.35;1.13;;;9.50;99.90;;;;;;5053314;28;20478;-65
2023/11/21 09:20:22;;;;;;;4.45;0.98;;;9.50;99.90;;;;;;5052427;28;20036;-66
2023/11/21 09:22:48;;;;;;;2.10;1.13;;;9.60;99.90;;;;;;5053343;28;20029;-65
2023/11/21 09:25:14;;;;;;;2.13;0.82;;;9.70;99.90;;;;;;5052031;28;20056;-65
2023/11/21 09:27:40;;;;;;;2.20;0.73;;;9.80;99.90;;;;;;5053406;28;20451;-65
2023/11/21 09:30:10;;;;;;;2.08;0.90;;;9.90;99.90;;;;;;5052364;28;20021;-66
2023/11/21 09:32:38;;;;;;;1.15;0.77;;;10.00;99.90;;;;;;5052608;28;20037;-66
2023/11/21 09:35:10;;;;;;;2.67;0.90;;;10.10;99.90;;;;;;5052600;28;20044;-65
2023/11/21 09:37:35;;;;;;;2.60;1.02;;;10.10;99.90;;;;;;5037266;28;20032;-65
2023/11/21 09:40:01;;;;;;;3.78;1.10;;;10.20;99.90;;;;;;5053045;28;20025;-65
2023/11/21 09:42:43;;;;;;;2.10;1.00;;;10.20;99.90;;;;;;5052224;28;20817;-65
2023/11/21 09:45:15;;;;;;;3.08;0.80;;;10.20;99.90;;;;;;5051478;28;20120;-65
2023/11/21 09:47:42;;;;;;;0.90;0.63;;;10.20;99.90;;;;;;5053245;28;20536;-65
2023/11/21 09:50:12;;;;;;;1.02;0.80;;;10.20;99.90;;;;;;5051775;28;20434;-65
2023/11/21 09:53:07;;;;;;;1.70;0.80;;;10.10;99.90;;;;;;5053111;28;20072;-64
2023/11/21 09:55:38;;;;;;;0.70;0.50;;;10.00;99.90;;;;;;5048795;28;20451;-65
2023/11/21 09:58:07;;;;;;;0.60;0.60;;;9.90;99.90;;;;;;5052204;28;20021;-65
2023/11/21 10:00:33;;;;;;;0.77;0.40;;;9.90;99.90;;;;;;5051990;28;20086;-65
2023/11/21 10:02:59;;;;;;;1.13;0.60;;;9.90;99.90;;;;;;5052707;28;20052;-64
2023/11/21 10:05:25;;;;;;;1.42;0.68;;;9.80;99.90;;;;;;5051076;28;20048;-65
2023/11/21 10:07:53;;;;;;;1.20;0.80;;;9.90;99.90;;;;;;5052659;28;20434;-65
2023/11/21 10:10:21;;;;;;;4.38;0.90;;;9.90;99.90;;;;;;5048170;28;20104;-65
2023/11/21 10:12:55;;;;;;;0.95;0.63;;;9.90;99.90;;;;;;5047030;28;20025;-65
2023/11/21 10:15:27;;;;;;;2.90;1.02;;;9.90;99.90;;;;;;5050942;28;20859;-65
2023/11/21 10:17:54;;;;;;;1.30;0.90;;;10.00;99.90;;;;;;5051891;28;20049;-65
2023/11/21 10:20:20;;;;;;;7.10;1.67;;;9.90;99.90;;;;;;5050617;28;20037;-65
2023/11/21 10:22:46;;;;;;;2.83;0.95;;;9.90;99.90;;;;;;5052796;28;20075;-64
2023/11/21 10:25:17;;;;;;;1.23;0.90;;;10.00;99.90;;;;;;5051465;28;20032;-65
2023/11/21 10:27:47;;;;;;;2.90;1.10;;;9.80;99.90;;;;;;5052853;28;20108;-64
2023/11/21 10:30:15;;;;;;;1.67;1.55;;;9.60;99.90;;;;;;5051002;28;20444;-65
2023/11/21 10:32:43;;;;;;;6.70;1.30;;;9.50;99.90;;;;;;5052650;28;20112;-66
2023/11/21 10:35:11;;;;;;;1.45;1.35;;;9.30;99.90;;;;;;5050716;28;20086;-66
2023/11/21 10:37:40;;;;;;;1.95;0.88;;;9.20;99.90;;;;;;5052716;28;20027;-65
2023/11/21 10:40:07;;;;;;;2.67;0.73;;;9.10;99.90;;;;;;5041994;28;20040;-66
2023/11/21 10:42:33;;;;;;;1.30;0.50;;;9.00;99.90;;;;;;5052103;28;20059;-66
2023/11/21 10:45:00;;;;;;;1.00;0.57;;;9.00;99.90;;;;;;5051796;28;20466;-66
2023/11/21 10:47:26;;;;;;;0.40;0.30;;;8.90;99.90;;;;;;5051035;28;20033;-65
2023/11/21 10:49:55;;;;;;;1.55;0.40;;;8.90;99.90;;;;;;5052505;28;20462;-65
2023/11/21 10:52:20;;;;;;;1.63;0.43;;;8.90;99.90;;;;;;5050800;28;20037;-66
2023/11/21 10:54:46;;;;;;;1.33;0.25;;;8.80;99.90;;;;;;5051726;28;20028;-66
2023/11/21 10:57:17;;;;;;;1.95;0.30;;;8.80;99.90;;;;;;5050579;28;20473;-66
2023/11/21 10:59:49;;;;;;;0.75;0.32;;;8.80;99.90;;;;;;5034493;28;20033;-66
2023/11/21 11:02:34;;;;;;;0.55;0.20;;;8.80;99.90;;;;;;5050621;28;20033;-65
2023/11/21 11:05:00;;;;;;;1.05;0.30;;;8.90;99.90;;;;;;5051828;28;20508;-66
2023/11/21 11:07:28;;;;;;;1.15;0.30;;;9.10;99.90;;;;;;5050409;28;20420;-65
2023/11/21 11:09:58;;;;;;;0.85;0.20;;;9.20;99.90;;;;;;5051240;28;20033;-66
2023/11/21 11:12:24;;;;;;;0.70;0.30;;;9.20;99.90;;;;;;5045994;28;20119;-65
2023/11/21 11:14:52;;;;;;;0.43;0.22;;;9.30;99.90;;;;;;5051929;28;20419;-73
2023/11/21 11:17:20;;;;;;;0.93;0.30;;;9.50;99.90;;;;;;5050128;28;20394;-70
2023/11/21 11:19:47;;;;;;;0.50;0.30;;;9.70;99.90;;;;;;5051304;28;20033;-68
2023/11/21 11:22:21;;;;;;;0.63;0.40;;;9.80;99.90;;;;;;5050401;28;20056;-69
2023/11/21 11:25:14;;;;;;;0.30;0.17;;;10.00;99.90;;;;;;5051288;28;20543;-67
2023/11/21 11:28:08;;;;;;;0.68;0.35;;;10.10;99.90;;;;;;5036768;28;20378;-68
2023/11/21 11:30:38;;;;;;;2.45;0.30;;;10.20;99.90;;;;;;5043014;28;20036;-69
2023/11/21 11:33:15;;;;;;;;;;;10.20;99.90;;;;;;5051525;28;20413;-71
2023/11/21 11:35:58;;;;;;;1.50;0.40;;;10.20;99.90;;;;;;5049780;28;19913;-68
2023/11/21 11:38:26;;;;;;;0.40;0.40;;;10.30;99.90;;;;;;5050618;28;20025;-70
2023/11/21 11:40:54;;;;;;;0.60;0.60;;;10.30;99.90;;;;;;5051080;28;20393;-67
2023/11/21 11:43:27;;;;;;;1.27;0.45;;;10.30;99.90;;;;;;5064909;28;20116;-66
2023/11/21 11:45:58;;;;;;;1.27;0.77;;;10.20;99.90;;;;;;5051065;28;20473;-67
2023/11/21 11:48:24;;;;;;;0.60;0.60;;;10.10;99.90;;;;;;5050453;28;20056;-68
2023/11/21 11:51:14;;;;;;;0.95;0.70;;;10.10;99.90;;;;;;5050897;28;20492;-66
2023/11/21 11:53:41;;;;;;;0.55;0.50;;;10.10;99.90;;;;;;5035615;28;20025;-66
2023/11/21 11:56:27;;;;;;;1.13;0.65;;;10.10;99.90;;;;;;5050176;28;20025;-66
2023/11/21 11:58:58;;;;;;;0.98;0.63;;;10.20;99.90;;;;;;5053316;28;20028;-67
2023/11/21 12:01:26;;;;;;;0.77;0.75;;;10.10;99.90;;;;;;5031550;28;20035;-66
2023/11/21 12:04:10;;;;;;;0.93;0.70;;;10.20;99.90;;;;;;5061271;28;20029;-66
2023/11/21 12:06:36;;;;;;;1.00;0.80;;;10.30;99.90;;;;;;5056348;28;20077;-66
2023/11/21 12:09:05;;;;;;;0.90;0.70;;;10.30;99.90;;;;;;5054450;28;20467;-66
2023/11/21 12:11:32;;;;;;;2.20;0.80;;;10.40;99.90;;;;;;5050050;28;20040;-66
2023/11/21 12:13:59;;;;;;;0.73;0.73;;;10.40;99.90;;;;;;5051132;28;20029;-66
2023/11/21 12:16:27;;;;;;;1.08;0.80;;;10.50;99.90;;;;;;5050898;28;20131;-66
2023/11/21 12:18:53;;;;;;;1.30;0.85;;;10.50;99.90;;;;;;5050509;28;20051;-66
2023/11/21 12:21:20;;;;;;;1.10;1.00;;;10.40;99.90;;;;;;5050862;28;20470;-66
2023/11/21 12:23:47;;;;;;;0.82;0.68;;;10.20;99.90;;;;;;5057952;28;20032;-66
2023/11/21 12:26:13;;;;;;;1.33;0.93;;;10.00;99.90;;;;;;5054979;28;20032;-66
2023/11/21 12:28:39;;;;;;;3.50;0.95;;;9.80;99.90;;;;;;5056827;28;20112;-66
2023/11/21 12:31:06;;;;;;;2.05;1.02;;;9.60;99.90;;;;;;5049050;28;20128;-67
2023/11/21 12:33:35;;;;;;;0.85;0.70;;;9.50;99.90;;;;;;5051723;28;20501;-66
2023/11/21 12:36:00;;;;;;;0.80;0.52;;;9.50;99.90;;;;;;5050291;28;20156;-66
2023/11/21 12:38:35;;;;;;;0.93;0.60;;;9.50;99.90;;;;;;5049835;28;20103;-66
2023/11/21 12:41:00;;;;;;;1.00;0.73;;;9.60;99.90;;;;;;5045983;28;20029;-66
2023/11/21 12:43:26;;;;;;;0.75;0.40;;;9.60;99.90;;;;;;5034911;28;21469;-66
2023/11/21 12:46:15;;;;;;;1.90;0.63;;;9.70;99.90;;;;;;5054882;28;20405;-66
2023/11/21 12:48:45;;;;;;;2.08;0.80;;;9.60;99.90;;;;;;5058495;28;20117;-66
2023/11/21 12:51:13;;;;;;;1.23;0.73;;;9.60;99.90;;;;;;5052017;28;20035;-67
2023/11/21 12:53:39;;;;;;;0.80;0.80;;;9.60;99.90;;;;;;5058278;28;20048;-67
2023/11/21 12:56:10;;;;;;;0.80;0.80;;;9.70;99.90;;;;;;5049176;28;20482;-66
2023/11/21 12:58:39;;;;;;;0.70;0.70;;;9.80;99.90;;;;;;5050369;28;20035;-66